sensor_id;sensor_type;location;lat;lon;timestamp;pressure;altitude;pressure_sealevel;temperature;humidity
53506;BME280;39388;50.936;6.848;2023-03-14T00:00:58;98579.00;;;11.86;73.90
53506;BME280;39388;50.936;6.848;2023-03-14T00:03:28;98583.56;;;11.81;73.83
53506;BME280;39388;50.936;6.848;2023-03-14T00:06:03;98564.38;;;11.66;73.84
53506;BME280;39388;50.936;6.848;2023-03-14T00:08:34;98574.44;;;11.72;74.17
53506;BME280;39388;50.936;6.848;2023-03-14T00:11:08;98596.13;;;11.68;73.80
53506;BME280;39388;50.936;6.848;2023-03-14T00:13:40;98604.84;;;11.66;73.89
53506;BME280;39388;50.936;6.848;2023-03-14T00:16:12;98621.25;;;11.64;74.27
53506;BME280;39388;50.936;6.848;2023-03-14T00:18:42;98628.22;;;11.62;74.00
53506;BME280;39388;50.936;6.848;2023-03-14T00:21:13;98641.94;;;11.63;74.16
53506;BME280;39388;50.936;6.848;2023-03-14T00:23:44;98646.28;;;11.62;74.12
53506;BME280;39388;50.936;6.848;2023-03-14T00:26:17;98640.88;;;11.69;73.95
53506;BME280;39388;50.936;6.848;2023-03-14T00:28:51;98638.09;;;11.73;73.83
53506;BME280;39388;50.936;6.848;2023-03-14T00:31:22;98651.69;;;11.77;73.72
53506;BME280;39388;50.936;6.848;2023-03-14T00:33:52;98643.66;;;11.85;73.35
53506;BME280;39388;50.936;6.848;2023-03-14T00:36:23;98637.50;;;11.87;73.43
53506;BME280;39388;50.936;6.848;2023-03-14T00:38:54;98624.66;;;11.86;73.37
53506;BME280;39388;50.936;6.848;2023-03-14T00:41:24;98639.69;;;11.97;72.85
53506;BME280;39388;50.936;6.848;2023-03-14T00:43:55;98633.47;;;12.01;73.26
53506;BME280;39388;50.936;6.848;2023-03-14T00:46:25;98626.63;;;12.00;73.22
53506;BME280;39388;50.936;6.848;2023-03-14T00:48:56;98624.56;;;12.08;73.13
53506;BME280;39388;50.936;6.848;2023-03-14T00:51:26;98630.53;;;12.08;72.78
53506;BME280;39388;50.936;6.848;2023-03-14T00:53:56;98622.88;;;12.07;72.65
53506;BME280;39388;50.936;6.848;2023-03-14T00:56:27;98633.91;;;12.10;72.97
53506;BME280;39388;50.936;6.848;2023-03-14T00:58:57;98628.59;;;12.14;73.07
53506;BME280;39388;50.936;6.848;2023-03-14T01:01:27;98630.28;;;12.15;72.98
53506;BME280;39388;50.936;6.848;2023-03-14T01:03:58;98634.59;;;12.14;73.12
53506;BME280;39388;50.936;6.848;2023-03-14T01:06:28;98640.53;;;12.16;72.98
53506;BME280;39388;50.936;6.848;2023-03-14T01:08:59;98646.56;;;12.17;73.41
53506;BME280;39388;50.936;6.848;2023-03-14T01:11:32;98688.09;;;12.12;73.63
53506;BME280;39388;50.936;6.848;2023-03-14T01:14:03;98702.75;;;12.12;73.96
53506;BME280;39388;50.936;6.848;2023-03-14T01:16:34;98679.59;;;11.89;74.97
53506;BME280;39388;50.936;6.848;2023-03-14T01:19:05;98683.97;;;11.87;75.61
53506;BME280;39388;50.936;6.848;2023-03-14T01:21:35;98659.84;;;11.68;76.37
53506;BME280;39388;50.936;6.848;2023-03-14T01:24:06;98654.25;;;11.56;77.46
53506;BME280;39388;50.936;6.848;2023-03-14T01:26:37;98663.88;;;11.53;77.83
53506;BME280;39388;50.936;6.848;2023-03-14T01:29:07;98638.34;;;11.46;78.59
53506;BME280;39388;50.936;6.848;2023-03-14T01:31:37;98631.63;;;11.42;78.77
53506;BME280;39388;50.936;6.848;2023-03-14T01:34:08;98630.03;;;11.40;78.88
53506;BME280;39388;50.936;6.848;2023-03-14T01:36:38;98625.91;;;11.36;79.06
53506;BME280;39388;50.936;6.848;2023-03-14T01:39:08;98626.09;;;11.31;79.41
53506;BME280;39388;50.936;6.848;2023-03-14T01:41:40;98617.69;;;11.26;79.73
53506;BME280;39388;50.936;6.848;2023-03-14T01:44:11;98621.88;;;11.28;79.66
53506;BME280;39388;50.936;6.848;2023-03-14T01:46:43;98631.44;;;11.26;79.73
53506;BME280;39388;50.936;6.848;2023-03-14T01:49:30;98623.75;;;11.25;80.08
53506;BME280;39388;50.936;6.848;2023-03-14T01:52:13;98629.81;;;11.24;80.26
53506;BME280;39388;50.936;6.848;2023-03-14T01:54:53;98606.00;;;11.17;79.70
53506;BME280;39388;50.936;6.848;2023-03-14T01:57:30;98601.03;;;11.12;80.15
53506;BME280;39388;50.936;6.848;2023-03-14T02:00:10;98579.94;;;11.02;79.97
53506;BME280;39388;50.936;6.848;2023-03-14T02:02:47;98600.66;;;11.01;79.88
53506;BME280;39388;50.936;6.848;2023-03-14T02:05:21;98613.00;;;10.93;79.89
53506;BME280;39388;50.936;6.848;2023-03-14T02:07:57;98605.56;;;10.85;79.79
53506;BME280;39388;50.936;6.848;2023-03-14T02:10:31;98614.38;;;10.79;80.19
53506;BME280;39388;50.936;6.848;2023-03-14T02:13:03;98610.28;;;10.75;80.51
53506;BME280;39388;50.936;6.848;2023-03-14T02:15:35;98608.53;;;10.76;80.38
53506;BME280;39388;50.936;6.848;2023-03-14T02:18:06;98600.91;;;10.72;80.58
53506;BME280;39388;50.936;6.848;2023-03-14T02:21:03;98597.38;;;10.75;80.52
53506;BME280;39388;50.936;6.848;2023-03-14T02:26:22;98616.34;;;10.74;80.52
53506;BME280;39388;50.936;6.848;2023-03-14T02:28:54;98610.41;;;10.72;80.89
53506;BME280;39388;50.936;6.848;2023-03-14T02:31:24;98612.97;;;10.72;80.84
53506;BME280;39388;50.936;6.848;2023-03-14T02:33:56;98609.50;;;10.73;80.79
53506;BME280;39388;50.936;6.848;2023-03-14T02:36:27;98600.13;;;10.70;80.68
53506;BME280;39388;50.936;6.848;2023-03-14T02:39:07;98600.88;;;10.74;80.80
53506;BME280;39388;50.936;6.848;2023-03-14T02:41:40;98588.91;;;10.71;80.77
53506;BME280;39388;50.936;6.848;2023-03-14T02:44:12;98587.56;;;10.63;80.68
53506;BME280;39388;50.936;6.848;2023-03-14T02:46:42;98579.47;;;10.50;80.60
53506;BME280;39388;50.936;6.848;2023-03-14T02:49:14;98586.53;;;10.45;81.20
53506;BME280;39388;50.936;6.848;2023-03-14T02:51:45;98579.84;;;10.40;81.38
53506;BME280;39388;50.936;6.848;2023-03-14T02:54:16;98577.31;;;10.39;81.12
53506;BME280;39388;50.936;6.848;2023-03-14T02:56:48;98552.03;;;10.26;81.40
53506;BME280;39388;50.936;6.848;2023-03-14T02:59:18;98563.72;;;10.35;81.51
53506;BME280;39388;50.936;6.848;2023-03-14T03:01:49;98571.63;;;10.31;81.65
53506;BME280;39388;50.936;6.848;2023-03-14T03:04:19;98561.31;;;10.31;81.41
53506;BME280;39388;50.936;6.848;2023-03-14T03:06:49;98558.56;;;10.35;81.93
53506;BME280;39388;50.936;6.848;2023-03-14T03:09:20;98542.03;;;10.41;81.71
53506;BME280;39388;50.936;6.848;2023-03-14T03:11:50;98549.53;;;10.47;81.44
53506;BME280;39388;50.936;6.848;2023-03-14T03:14:21;98550.28;;;10.49;81.48
53506;BME280;39388;50.936;6.848;2023-03-14T03:16:51;98546.78;;;10.50;81.64
53506;BME280;39388;50.936;6.848;2023-03-14T03:19:21;98545.91;;;10.51;81.53
53506;BME280;39388;50.936;6.848;2023-03-14T03:21:52;98542.44;;;10.52;81.62
53506;BME280;39388;50.936;6.848;2023-03-14T03:24:22;98546.50;;;10.58;81.69
53506;BME280;39388;50.936;6.848;2023-03-14T03:26:53;98549.81;;;10.62;81.08
53506;BME280;39388;50.936;6.848;2023-03-14T03:29:23;98538.59;;;10.63;81.46
53506;BME280;39388;50.936;6.848;2023-03-14T03:31:54;98531.78;;;10.62;81.24
53506;BME280;39388;50.936;6.848;2023-03-14T03:34:24;98527.13;;;10.70;80.94
53506;BME280;39388;50.936;6.848;2023-03-14T03:36:57;98527.91;;;10.72;81.06
53506;BME280;39388;50.936;6.848;2023-03-14T03:39:28;98533.88;;;10.72;80.74
53506;BME280;39388;50.936;6.848;2023-03-14T03:41:58;98536.44;;;10.74;80.94
53506;BME280;39388;50.936;6.848;2023-03-14T03:44:28;98533.88;;;10.72;80.76
53506;BME280;39388;50.936;6.848;2023-03-14T03:46:59;98545.56;;;10.81;80.20
53506;BME280;39388;50.936;6.848;2023-03-14T03:49:30;98535.06;;;10.86;80.44
53506;BME280;39388;50.936;6.848;2023-03-14T03:52:01;98526.59;;;10.84;80.33
53506;BME280;39388;50.936;6.848;2023-03-14T03:54:31;98530.56;;;10.91;80.37
53506;BME280;39388;50.936;6.848;2023-03-14T03:57:02;98526.19;;;10.93;80.42
53506;BME280;39388;50.936;6.848;2023-03-14T03:59:32;98532.16;;;10.94;80.04
53506;BME280;39388;50.936;6.848;2023-03-14T04:02:02;98511.88;;;10.86;80.01
53506;BME280;39388;50.936;6.848;2023-03-14T04:04:33;98522.63;;;10.96;79.95
53506;BME280;39388;50.936;6.848;2023-03-14T04:07:03;98528.50;;;10.99;79.90
53506;BME280;39388;50.936;6.848;2023-03-14T04:09:34;98536.31;;;10.98;79.83
53506;BME280;39388;50.936;6.848;2023-03-14T04:12:05;98528.66;;;10.96;79.84
53506;BME280;39388;50.936;6.848;2023-03-14T04:14:35;98514.13;;;10.94;80.09
53506;BME280;39388;50.936;6.848;2023-03-14T04:17:05;98522.72;;;10.94;80.20
53506;BME280;39388;50.936;6.848;2023-03-14T04:19:36;98520.34;;;10.90;80.90
53506;BME280;39388;50.936;6.848;2023-03-14T04:22:06;98517.88;;;10.86;81.29
53506;BME280;39388;50.936;6.848;2023-03-14T04:24:36;98508.47;;;10.85;81.06
53506;BME280;39388;50.936;6.848;2023-03-14T04:27:07;98513.69;;;10.84;81.55
53506;BME280;39388;50.936;6.848;2023-03-14T04:29:37;98515.41;;;10.83;81.68
53506;BME280;39388;50.936;6.848;2023-03-14T04:32:08;98513.75;;;10.82;81.68
53506;BME280;39388;50.936;6.848;2023-03-14T04:34:38;98506.13;;;10.79;81.89
53506;BME280;39388;50.936;6.848;2023-03-14T04:37:08;98508.78;;;10.78;82.39
53506;BME280;39388;50.936;6.848;2023-03-14T04:39:39;98519.00;;;10.79;82.49
53506;BME280;39388;50.936;6.848;2023-03-14T04:42:09;98515.72;;;10.76;82.70
53506;BME280;39388;50.936;6.848;2023-03-14T04:44:39;98512.25;;;10.77;82.82
53506;BME280;39388;50.936;6.848;2023-03-14T04:47:10;98510.50;;;10.77;82.98
53506;BME280;39388;50.936;6.848;2023-03-14T04:49:40;98502.91;;;10.74;82.88
53506;BME280;39388;50.936;6.848;2023-03-14T04:52:10;98497.69;;;10.76;83.02
53506;BME280;39388;50.936;6.848;2023-03-14T04:54:41;98501.25;;;10.73;83.01
53506;BME280;39388;50.936;6.848;2023-03-14T04:59:51;98484.13;;;10.70;83.61
53506;BME280;39388;50.936;6.848;2023-03-14T05:02:22;98464.00;;;10.60;83.54
53506;BME280;39388;50.936;6.848;2023-03-14T05:04:52;98477.25;;;10.71;83.80
53506;BME280;39388;50.936;6.848;2023-03-14T05:07:22;98460.44;;;10.62;83.86
53506;BME280;39388;50.936;6.848;2023-03-14T05:09:53;98468.69;;;10.70;83.96
53506;BME280;39388;50.936;6.848;2023-03-14T05:12:23;98469.66;;;10.68;84.04
53506;BME280;39388;50.936;6.848;2023-03-14T05:14:54;98460.25;;;10.67;84.49
53506;BME280;39388;50.936;6.848;2023-03-14T05:17:24;98446.66;;;10.63;84.05
53506;BME280;39388;50.936;6.848;2023-03-14T05:19:54;98459.34;;;10.68;83.85
53506;BME280;39388;50.936;6.848;2023-03-14T05:22:25;98458.19;;;10.75;84.08
53506;BME280;39388;50.936;6.848;2023-03-14T05:24:56;98455.66;;;10.73;84.06
53506;BME280;39388;50.936;6.848;2023-03-14T05:27:28;98442.91;;;10.70;83.80
53506;BME280;39388;50.936;6.848;2023-03-14T05:29:59;98448.78;;;10.74;83.58
53506;BME280;39388;50.936;6.848;2023-03-14T05:32:29;98447.94;;;10.73;83.77
53506;BME280;39388;50.936;6.848;2023-03-14T05:35:00;98425.25;;;10.61;83.98
53506;BME280;39388;50.936;6.848;2023-03-14T05:37:30;98446.25;;;10.72;83.85
53506;BME280;39388;50.936;6.848;2023-03-14T05:40:00;98448.78;;;10.74;83.70
53506;BME280;39388;50.936;6.848;2023-03-14T05:42:31;98450.38;;;10.77;83.58
53506;BME280;39388;50.936;6.848;2023-03-14T05:45:01;98441.75;;;10.78;83.29
53506;BME280;39388;50.936;6.848;2023-03-14T05:47:32;98447.63;;;10.81;82.84
53506;BME280;39388;50.936;6.848;2023-03-14T05:50:02;98436.69;;;10.76;82.80
53506;BME280;39388;50.936;6.848;2023-03-14T05:52:33;98441.69;;;10.79;82.29
53506;BME280;39388;50.936;6.848;2023-03-14T05:55:03;98444.22;;;10.81;82.37
53506;BME280;39388;50.936;6.848;2023-03-14T05:57:34;98445.81;;;10.83;81.70
53506;BME280;39388;50.936;6.848;2023-03-14T06:00:05;98448.47;;;10.82;81.70
53506;BME280;39388;50.936;6.848;2023-03-14T06:02:35;98444.13;;;10.82;82.12
53506;BME280;39388;50.936;6.848;2023-03-14T06:05:06;98447.63;;;10.81;82.01
53506;BME280;39388;50.936;6.848;2023-03-14T06:07:37;98443.34;;;10.80;82.41
53506;BME280;39388;50.936;6.848;2023-03-14T06:10:08;98440.78;;;10.80;82.22
53506;BME280;39388;50.936;6.848;2023-03-14T06:12:38;98436.47;;;10.81;82.04
53506;BME280;39388;50.936;6.848;2023-03-14T06:15:09;98423.72;;;10.78;82.23
53506;BME280;39388;50.936;6.848;2023-03-14T06:17:39;98422.03;;;10.77;82.39
53506;BME280;39388;50.936;6.848;2023-03-14T06:20:10;98433.81;;;10.82;82.20
53506;BME280;39388;50.936;6.848;2023-03-14T06:22:41;98433.81;;;10.82;82.45
53506;BME280;39388;50.936;6.848;2023-03-14T06:25:12;98433.81;;;10.82;82.30
53506;BME280;39388;50.936;6.848;2023-03-14T06:27:42;98431.25;;;10.82;82.21
53506;BME280;39388;50.936;6.848;2023-03-14T06:30:13;98431.13;;;10.85;82.63
53506;BME280;39388;50.936;6.848;2023-03-14T06:32:43;98423.31;;;10.87;82.57
53506;BME280;39388;50.936;6.848;2023-03-14T06:35:13;98426.75;;;10.87;82.31
53506;BME280;39388;50.936;6.848;2023-03-14T06:37:44;98397.25;;;10.74;81.94
53506;BME280;39388;50.936;6.848;2023-03-14T06:40:14;98427.34;;;10.93;82.22
53506;BME280;39388;50.936;6.848;2023-03-14T06:42:48;98434.06;;;10.97;81.99
53506;BME280;39388;50.936;6.848;2023-03-14T06:45:18;98441.47;;;11.05;81.95
53506;BME280;39388;50.936;6.848;2023-03-14T06:47:49;98438.56;;;11.12;81.75
53506;BME280;39388;50.936;6.848;2023-03-14T06:50:19;98433.72;;;11.25;81.27
53506;BME280;39388;50.936;6.848;2023-03-14T06:52:49;98439.66;;;11.46;80.65
53506;BME280;39388;50.936;6.848;2023-03-14T06:55:20;98425.75;;;11.49;80.20
53506;BME280;39388;50.936;6.848;2023-03-14T06:57:50;98439.56;;;11.48;79.84
53506;BME280;39388;50.936;6.848;2023-03-14T07:00:21;98431.97;;;11.45;80.00
53506;BME280;39388;50.936;6.848;2023-03-14T07:02:51;98432.03;;;11.43;80.10
53506;BME280;39388;50.936;6.848;2023-03-14T07:05:22;98440.56;;;11.45;80.44
53506;BME280;39388;50.936;6.848;2023-03-14T07:07:52;98428.69;;;11.41;80.46
53506;BME280;39388;50.936;6.848;2023-03-14T07:10:23;98438.78;;;11.46;80.45
53506;BME280;39388;50.936;6.848;2023-03-14T07:12:53;98444.72;;;11.48;80.54
53506;BME280;39388;50.936;6.848;2023-03-14T07:15:24;98451.31;;;11.55;80.38
53506;BME280;39388;50.936;6.848;2023-03-14T07:17:54;98462.19;;;11.62;79.95
53506;BME280;39388;50.936;6.848;2023-03-14T07:20:24;98456.25;;;11.60;79.81
53506;BME280;39388;50.936;6.848;2023-03-14T07:22:55;98462.22;;;11.60;79.96
53506;BME280;39388;50.936;6.848;2023-03-14T07:25:26;98466.28;;;11.66;80.10
53506;BME280;39388;50.936;6.848;2023-03-14T07:27:56;98455.72;;;11.71;79.99
53506;BME280;39388;50.936;6.848;2023-03-14T07:30:26;98457.88;;;11.82;79.60
53506;BME280;39388;50.936;6.848;2023-03-14T07:32:57;98470.38;;;11.91;79.90
53506;BME280;39388;50.936;6.848;2023-03-14T07:35:27;98472.78;;;11.94;79.36
53506;BME280;39388;50.936;6.848;2023-03-14T07:37:58;98480.41;;;11.97;79.63
53506;BME280;39388;50.936;6.848;2023-03-14T07:40:28;98475.91;;;12.01;79.75
53506;BME280;39388;50.936;6.848;2023-03-14T07:42:58;98481.09;;;12.01;79.13
53506;BME280;39388;50.936;6.848;2023-03-14T07:45:29;98491.28;;;12.04;79.63
53506;BME280;39388;50.936;6.848;2023-03-14T07:47:59;98487.91;;;12.02;80.23
53506;BME280;39388;50.936;6.848;2023-03-14T07:50:32;98487.78;;;12.05;79.76
53506;BME280;39388;50.936;6.848;2023-03-14T07:53:02;98494.53;;;12.07;79.61
53506;BME280;39388;50.936;6.848;2023-03-14T07:55:32;98491.69;;;12.14;79.98
53506;BME280;39388;50.936;6.848;2023-03-14T07:58:03;98485.47;;;12.18;79.61
53506;BME280;39388;50.936;6.848;2023-03-14T08:00:33;98491.41;;;12.20;79.76
53506;BME280;39388;50.936;6.848;2023-03-14T08:03:04;98498.31;;;12.19;79.77
53506;BME280;39388;50.936;6.848;2023-03-14T08:05:38;98501.78;;;12.18;79.44
53506;BME280;39388;50.936;6.848;2023-03-14T08:08:09;98498.59;;;12.13;79.74
53506;BME280;39388;50.936;6.848;2023-03-14T08:10:39;98507.09;;;12.15;79.78
53506;BME280;39388;50.936;6.848;2023-03-14T08:13:10;98502.84;;;12.14;79.67
53506;BME280;39388;50.936;6.848;2023-03-14T08:15:40;98513.72;;;12.21;80.00
53506;BME280;39388;50.936;6.848;2023-03-14T08:18:11;98511.00;;;12.24;80.14
53506;BME280;39388;50.936;6.848;2023-03-14T08:20:41;98506.53;;;12.28;79.81
53506;BME280;39388;50.936;6.848;2023-03-14T08:23:11;98514.00;;;12.34;79.63
53506;BME280;39388;50.936;6.848;2023-03-14T08:25:42;98514.63;;;12.39;79.99
53506;BME280;39388;50.936;6.848;2023-03-14T08:28:13;98503.97;;;12.45;79.69
53506;BME280;39388;50.936;6.848;2023-03-14T08:30:44;98502.25;;;12.46;79.48
53506;BME280;39388;50.936;6.848;2023-03-14T08:33:14;98515.00;;;12.49;79.49
53506;BME280;39388;50.936;6.848;2023-03-14T08:35:44;98497.00;;;12.47;79.58
53506;BME280;39388;50.936;6.848;2023-03-14T08:38:15;98505.13;;;12.57;79.36
53506;BME280;39388;50.936;6.848;2023-03-14T08:40:45;98510.47;;;12.71;78.86
53506;BME280;39388;50.936;6.848;2023-03-14T08:43:16;98498.91;;;12.79;78.33
53506;BME280;39388;50.936;6.848;2023-03-14T08:45:46;98505.34;;;12.88;78.22
53506;BME280;39388;50.936;6.848;2023-03-14T08:48:16;98514.94;;;12.85;78.14
53506;BME280;39388;50.936;6.848;2023-03-14T08:50:47;98514.34;;;12.80;77.79
53506;BME280;39388;50.936;6.848;2023-03-14T08:53:17;98523.94;;;12.78;77.85
53506;BME280;39388;50.936;6.848;2023-03-14T08:55:54;98535.94;;;12.79;78.33
53506;BME280;39388;50.936;6.848;2023-03-14T08:58:25;98551.94;;;12.70;78.65
53506;BME280;39388;50.936;6.848;2023-03-14T09:00:55;98557.75;;;12.56;79.39
53506;BME280;39388;50.936;6.848;2023-03-14T09:03:26;98554.84;;;12.45;80.05
53506;BME280;39388;50.936;6.848;2023-03-14T09:06:01;98553.31;;;12.40;81.11
53506;BME280;39388;50.936;6.848;2023-03-14T09:08:34;98559.78;;;12.49;81.37
53506;BME280;39388;50.936;6.848;2023-03-14T09:11:07;98557.75;;;12.56;81.72
53506;BME280;39388;50.936;6.848;2023-03-14T09:13:37;98556.69;;;12.60;81.71
53506;BME280;39388;50.936;6.848;2023-03-14T09:16:08;98552.44;;;12.59;81.77
53506;BME280;39388;50.936;6.848;2023-03-14T09:18:39;98537.16;;;12.54;81.94
53506;BME280;39388;50.936;6.848;2023-03-14T09:21:09;98560.88;;;12.63;81.90
53506;BME280;39388;50.936;6.848;2023-03-14T09:23:39;98569.41;;;12.65;82.15
53506;BME280;39388;50.936;6.848;2023-03-14T09:26:10;98584.69;;;12.69;82.26
53506;BME280;39388;50.936;6.848;2023-03-14T09:28:40;98598.38;;;12.71;82.57
53506;BME280;39388;50.936;6.848;2023-03-14T09:31:11;98608.19;;;12.65;82.58
53506;BME280;39388;50.936;6.848;2023-03-14T09:33:42;98671.41;;;12.58;82.77
53506;BME280;39388;50.936;6.848;2023-03-14T09:36:12;98688.03;;;12.33;82.44
53506;BME280;39388;50.936;6.848;2023-03-14T09:38:42;98672.41;;;11.96;82.73
53506;BME280;39388;50.936;6.848;2023-03-14T09:41:28;98702.06;;;11.87;82.42
53506;BME280;39388;50.936;6.848;2023-03-14T09:44:04;98713.00;;;11.72;81.90
53506;BME280;39388;50.936;6.848;2023-03-14T09:46:38;98718.41;;;11.45;81.56
53506;BME280;39388;50.936;6.848;2023-03-14T09:49:32;98748.25;;;11.30;81.21
53506;BME280;39388;50.936;6.848;2023-03-14T09:52:06;98757.38;;;11.16;81.16
53506;BME280;39388;50.936;6.848;2023-03-14T09:55:00;98763.84;;;11.05;80.98
53506;BME280;39388;50.936;6.848;2023-03-14T09:57:34;98760.88;;;10.92;81.38
53506;BME280;39388;50.936;6.848;2023-03-14T10:00:17;98782.75;;;10.81;81.30
53506;BME280;39388;50.936;6.848;2023-03-14T10:02:54;98801.66;;;10.82;81.71
53506;BME280;39388;50.936;6.848;2023-03-14T10:05:25;98818.22;;;10.75;81.77
53506;BME280;39388;50.936;6.848;2023-03-14T10:07:58;98823.72;;;10.65;81.54
53506;BME280;39388;50.936;6.848;2023-03-14T10:10:28;98840.28;;;10.58;81.61
53506;BME280;39388;50.936;6.848;2023-03-14T10:15:33;98845.06;;;10.44;81.94
53506;BME280;39388;50.936;6.848;2023-03-14T10:18:10;98857.38;;;10.35;81.52
53506;BME280;39388;50.936;6.848;2023-03-14T10:20:45;98877.25;;;10.32;81.44
53506;BME280;39388;50.936;6.848;2023-03-14T10:26:03;98903.28;;;10.24;81.52
53506;BME280;39388;50.936;6.848;2023-03-14T10:31:08;98917.69;;;10.30;81.21
53506;BME280;39388;50.936;6.848;2023-03-14T10:33:38;98911.66;;;10.31;80.99
53506;BME280;39388;50.936;6.848;2023-03-14T10:36:17;98936.63;;;10.27;80.91
53506;BME280;39388;50.936;6.848;2023-03-14T10:38:49;98941.13;;;10.22;81.42
53506;BME280;39388;50.936;6.848;2023-03-14T10:41:30;98949.56;;;10.25;81.46
53506;BME280;39388;50.936;6.848;2023-03-14T10:44:01;98963.25;;;10.27;81.52
53506;BME280;39388;50.936;6.848;2023-03-14T10:46:32;98965.84;;;10.27;81.14
53506;BME280;39388;50.936;6.848;2023-03-14T10:49:06;98971.16;;;10.21;81.49
53506;BME280;39388;50.936;6.848;2023-03-14T10:51:37;98982.25;;;10.23;81.54
53506;BME280;39388;50.936;6.848;2023-03-14T10:54:19;98994.97;;;10.30;81.43
53506;BME280;39388;50.936;6.848;2023-03-14T10:56:58;99003.38;;;10.35;81.38
53506;BME280;39388;50.936;6.848;2023-03-14T10:59:35;99002.47;;;10.36;81.45
53506;BME280;39388;50.936;6.848;2023-03-14T11:05:01;99023.31;;;10.30;82.31
53506;BME280;39388;50.936;6.848;2023-03-14T11:07:42;98996.66;;;10.31;82.25
53506;BME280;39388;50.936;6.848;2023-03-14T11:22:03;99037.56;;;10.94;80.84
53506;BME280;39388;50.936;6.848;2023-03-14T11:27:18;99047.34;;;11.11;79.98
53506;BME280;39388;50.936;6.848;2023-03-14T11:32:44;99065.22;;;11.15;79.58
53506;BME280;39388;50.936;6.848;2023-03-14T11:35:31;99075.22;;;11.25;79.91
53506;BME280;39388;50.936;6.848;2023-03-14T11:38:24;99091.31;;;11.33;79.60
53506;BME280;39388;50.936;6.848;2023-03-14T11:40:59;99133.78;;;11.23;78.95
53506;BME280;39388;50.936;6.848;2023-03-14T11:43:35;99151.25;;;10.87;77.95
53506;BME280;39388;50.936;6.848;2023-03-14T11:46:27;99156.47;;;10.27;77.05
53506;BME280;39388;50.936;6.848;2023-03-14T11:51:56;99167.06;;;9.50;78.14
53506;BME280;39388;50.936;6.848;2023-03-14T11:57:24;99173.22;;;9.45;78.61
53506;BME280;39388;50.936;6.848;2023-03-14T12:13:12;99216.53;;;9.62;79.06
53506;BME280;39388;50.936;6.848;2023-03-14T12:15:55;99219.09;;;9.62;79.14
53506;BME280;39388;50.936;6.848;2023-03-14T12:18:29;99246.91;;;9.82;79.06
53506;BME280;39388;50.936;6.848;2023-03-14T12:21:03;99255.34;;;9.90;78.99
53506;BME280;39388;50.936;6.848;2023-03-14T12:23:41;99266.28;;;9.99;78.89
53506;BME280;39388;50.936;6.848;2023-03-14T12:26:13;99285.22;;;9.96;78.21
53506;BME280;39388;50.936;6.848;2023-03-14T12:29:11;99287.22;;;9.83;77.93
53506;BME280;39388;50.936;6.848;2023-03-14T12:31:49;99299.47;;;9.73;77.69
53506;BME280;39388;50.936;6.848;2023-03-14T12:37:05;99329.19;;;9.50;77.72
53506;BME280;39388;50.936;6.848;2023-03-14T12:45:25;99353.66;;;9.29;77.11
53506;BME280;39388;50.936;6.848;2023-03-14T12:48:21;99359.91;;;9.17;77.05
53506;BME280;39388;50.936;6.848;2023-03-14T12:51:02;99372.91;;;9.11;77.49
53506;BME280;39388;50.936;6.848;2023-03-14T13:01:34;99389.38;;;9.01;77.91
53506;BME280;39388;50.936;6.848;2023-03-14T13:04:09;99413.31;;;9.04;77.98
53506;BME280;39388;50.936;6.848;2023-03-14T13:06:55;99419.38;;;9.00;77.84
53506;BME280;39388;50.936;6.848;2023-03-14T13:12:12;99435.72;;;8.98;77.63
53506;BME280;39388;50.936;6.848;2023-03-14T13:14:48;99439.09;;;9.00;77.68
53506;BME280;39388;50.936;6.848;2023-03-14T13:17:24;99447.53;;;9.07;77.31
53506;BME280;39388;50.936;6.848;2023-03-14T13:19:58;99458.59;;;9.12;76.85
53506;BME280;39388;50.936;6.848;2023-03-14T13:22:33;99470.56;;;9.13;76.30
53506;BME280;39388;50.936;6.848;2023-03-14T13:25:10;99468.91;;;9.10;75.39
53506;BME280;39388;50.936;6.848;2023-03-14T13:27:41;99470.66;;;9.08;75.45
53506;BME280;39388;50.936;6.848;2023-03-14T13:32:46;99473.97;;;9.13;75.61
53506;BME280;39388;50.936;6.848;2023-03-14T13:35:27;99496.34;;;9.10;75.21
53506;BME280;39388;50.936;6.848;2023-03-14T13:38:00;99506.00;;;8.97;74.93
53506;BME280;39388;50.936;6.848;2023-03-14T13:40:32;99514.81;;;8.82;75.07
53506;BME280;39388;50.936;6.848;2023-03-14T13:43:14;99530.50;;;8.68;75.19
53506;BME280;39388;50.936;6.848;2023-03-14T13:45:49;99532.34;;;8.56;75.32
53506;BME280;39388;50.936;6.848;2023-03-14T13:48:21;99532.41;;;8.55;75.09
53506;BME280;39388;50.936;6.848;2023-03-14T13:51:07;99547.81;;;8.55;74.92
53506;BME280;39388;50.936;6.848;2023-03-14T13:56:27;99549.47;;;8.57;74.56
53506;BME280;39388;50.936;6.848;2023-03-14T13:58:58;99549.56;;;8.53;73.82
53506;BME280;39388;50.936;6.848;2023-03-14T14:01:32;99567.38;;;8.64;73.81
53506;BME280;39388;50.936;6.848;2023-03-14T14:04:13;99577.53;;;8.71;73.80
53506;BME280;39388;50.936;6.848;2023-03-14T14:07:00;99583.47;;;8.77;73.17
53506;BME280;39388;50.936;6.848;2023-03-14T14:09:36;99588.50;;;8.83;73.07
53506;BME280;39388;50.936;6.848;2023-03-14T14:15:06;99603.97;;;8.81;72.79
53506;BME280;39388;50.936;6.848;2023-03-14T14:17:41;99601.38;;;8.81;72.49
53506;BME280;39388;50.936;6.848;2023-03-14T14:22:51;99612.41;;;8.86;72.69
53506;BME280;39388;50.936;6.848;2023-03-14T14:25:22;99630.25;;;8.97;72.57
53506;BME280;39388;50.936;6.848;2023-03-14T14:27:52;99640.47;;;9.03;72.35
53506;BME280;39388;50.936;6.848;2023-03-14T14:30:31;99638.75;;;9.01;71.89
53506;BME280;39388;50.936;6.848;2023-03-14T14:33:17;99642.28;;;8.95;71.78
53506;BME280;39388;50.936;6.848;2023-03-14T14:35:52;99651.63;;;9.01;71.88
53506;BME280;39388;50.936;6.848;2023-03-14T14:38:24;99648.22;;;9.00;72.35
53506;BME280;39388;50.936;6.848;2023-03-14T14:40:59;99665.22;;;9.08;72.18
53506;BME280;39388;50.936;6.848;2023-03-14T14:43:35;99664.41;;;9.05;72.47
53506;BME280;39388;50.936;6.848;2023-03-14T14:46:08;99668.66;;;9.07;72.40
53506;BME280;39388;50.936;6.848;2023-03-14T14:48:39;99682.31;;;9.12;72.33
53506;BME280;39388;50.936;6.848;2023-03-14T14:51:10;99692.66;;;9.09;71.84
53506;BME280;39388;50.936;6.848;2023-03-14T14:53:43;99696.94;;;9.08;71.82